Terminal Aerodrome Forecast
Issued by NWS

Current Version | Previous Version | Text Only | Print | Product List | Glossary Off
Versions: 1 2 3 4 5 6 7 8 9 10 11 12 13 14 15 16 17 18 19 20 21 22 23 24 25 26 27 28 29 30 31 32 33 34 35 36 37 38 39 40 41 42 43

000
FTUS41 KRNK 211000 AAD
TAFLWB
TAF AMD
KLWB 211000Z 2110/2206 00000KT P6SM -RA SCT012 BKN035
      TEMPO 2111/2114 1 1/2SM -RA BR OVC012
     FM211500 29008KT P6SM -SHRA OVC020
     FM220200 32004KT P6SM OVC025=

USA.gov is the U.S. government's official web portal to all federal, state and local government web resources and services.